sensor_id;sensor_type;location;lat;lon;timestamp;temperature;humidity
26982;DHT22;14533;50.848;4.380;2022-11-30T00:01:59;7.60;99.90
26982;DHT22;14533;50.848;4.380;2022-11-30T00:04:26;7.40;99.90
26982;DHT22;14533;50.848;4.380;2022-11-30T00:06:51;7.30;99.90
26982;DHT22;14533;50.848;4.380;2022-11-30T00:09:23;7.10;99.90
26982;DHT22;14533;50.848;4.380;2022-11-30T00:11:49;7.30;99.90
26982;DHT22;14533;50.848;4.380;2022-11-30T00:14:16;7.40;99.90
26982;DHT22;14533;50.848;4.380;2022-11-30T00:16:47;7.40;99.90
26982;DHT22;14533;50.848;4.380;2022-11-30T00:19:14;7.40;99.90
26982;DHT22;14533;50.848;4.380;2022-11-30T00:21:45;7.50;99.90
26982;DHT22;14533;50.848;4.380;2022-11-30T00:24:17;7.40;99.90
26982;DHT22;14533;50.848;4.380;2022-11-30T00:26:43;7.50;99.90
26982;DHT22;14533;50.848;4.380;2022-11-30T00:29:10;7.50;99.90
26982;DHT22;14533;50.848;4.380;2022-11-30T00:31:39;7.60;99.90
26982;DHT22;14533;50.848;4.380;2022-11-30T00:34:06;7.40;99.90
26982;DHT22;14533;50.848;4.380;2022-11-30T00:36:43;7.40;99.90
26982;DHT22;14533;50.848;4.380;2022-11-30T00:39:09;7.40;99.90
26982;DHT22;14533;50.848;4.380;2022-11-30T00:41:34;7.50;99.90
26982;DHT22;14533;50.848;4.380;2022-11-30T00:44:00;7.40;99.90
26982;DHT22;14533;50.848;4.380;2022-11-30T00:46:28;7.40;99.90
26982;DHT22;14533;50.848;4.380;2022-11-30T00:48:54;7.50;99.90
26982;DHT22;14533;50.848;4.380;2022-11-30T00:51:20;7.50;99.90
26982;DHT22;14533;50.848;4.380;2022-11-30T00:53:47;7.50;99.90
26982;DHT22;14533;50.848;4.380;2022-11-30T00:56:13;7.60;99.90
26982;DHT22;14533;50.848;4.380;2022-11-30T00:58:39;7.70;99.90
26982;DHT22;14533;50.848;4.380;2022-11-30T01:01:06;7.60;99.90
26982;DHT22;14533;50.848;4.380;2022-11-30T01:03:35;7.60;99.90
26982;DHT22;14533;50.848;4.380;2022-11-30T01:06:06;7.50;99.90
26982;DHT22;14533;50.848;4.380;2022-11-30T01:08:33;7.50;99.90
26982;DHT22;14533;50.848;4.380;2022-11-30T01:11:22;7.60;99.90
26982;DHT22;14533;50.848;4.380;2022-11-30T01:13:48;7.60;99.90
26982;DHT22;14533;50.848;4.380;2022-11-30T01:16:17;7.50;99.90
26982;DHT22;14533;50.848;4.380;2022-11-30T01:18:45;7.40;99.90
26982;DHT22;14533;50.848;4.380;2022-11-30T01:21:18;7.30;99.90
26982;DHT22;14533;50.848;4.380;2022-11-30T01:23:47;7.50;99.90
26982;DHT22;14533;50.848;4.380;2022-11-30T01:26:14;7.40;99.90
26982;DHT22;14533;50.848;4.380;2022-11-30T01:28:40;7.50;99.90
26982;DHT22;14533;50.848;4.380;2022-11-30T01:31:12;7.40;99.90
26982;DHT22;14533;50.848;4.380;2022-11-30T01:33:49;7.20;99.90
26982;DHT22;14533;50.848;4.380;2022-11-30T01:36:21;7.40;99.90
26982;DHT22;14533;50.848;4.380;2022-11-30T01:38:53;7.60;99.90
26982;DHT22;14533;50.848;4.380;2022-11-30T01:41:28;7.70;99.90
26982;DHT22;14533;50.848;4.380;2022-11-30T01:44:45;7.70;99.90
26982;DHT22;14533;50.848;4.380;2022-11-30T01:47:07;7.50;99.90
26982;DHT22;14533;50.848;4.380;2022-11-30T01:49:50;7.70;99.90
26982;DHT22;14533;50.848;4.380;2022-11-30T01:52:34;7.60;99.90
26982;DHT22;14533;50.848;4.380;2022-11-30T01:55:16;7.50;99.90
26982;DHT22;14533;50.848;4.380;2022-11-30T01:58:01;7.40;99.90
26982;DHT22;14533;50.848;4.380;2022-11-30T02:00:30;7.30;99.90
26982;DHT22;14533;50.848;4.380;2022-11-30T02:03:09;7.50;99.90
26982;DHT22;14533;50.848;4.380;2022-11-30T02:05:38;7.30;99.90
26982;DHT22;14533;50.848;4.380;2022-11-30T02:08:06;7.30;99.90
26982;DHT22;14533;50.848;4.380;2022-11-30T02:10:40;7.70;99.90
26982;DHT22;14533;50.848;4.380;2022-11-30T02:19:13;7.90;99.90
26982;DHT22;14533;50.848;4.380;2022-11-30T02:22:34;7.70;99.90
26982;DHT22;14533;50.848;4.380;2022-11-30T02:28:39;7.60;99.90
26982;DHT22;14533;50.848;4.380;2022-11-30T02:31:12;7.60;99.90
26982;DHT22;14533;50.848;4.380;2022-11-30T02:33:41;7.80;99.90
26982;DHT22;14533;50.848;4.380;2022-11-30T02:36:15;8.10;99.90
26982;DHT22;14533;50.848;4.380;2022-11-30T02:38:55;8.30;99.90
26982;DHT22;14533;50.848;4.380;2022-11-30T02:41:22;8.30;99.90
26982;DHT22;14533;50.848;4.380;2022-11-30T02:43:57;8.20;99.90
26982;DHT22;14533;50.848;4.380;2022-11-30T02:46:48;8.00;99.90
26982;DHT22;14533;50.848;4.380;2022-11-30T02:50:14;8.10;99.90
26982;DHT22;14533;50.848;4.380;2022-11-30T02:52:35;7.90;99.90
26982;DHT22;14533;50.848;4.380;2022-11-30T02:55:07;7.90;99.90
26982;DHT22;14533;50.848;4.380;2022-11-30T02:57:35;7.80;99.90
26982;DHT22;14533;50.848;4.380;2022-11-30T03:00:09;7.50;99.90
26982;DHT22;14533;50.848;4.380;2022-11-30T03:02:37;7.60;99.90
26982;DHT22;14533;50.848;4.380;2022-11-30T03:05:06;7.80;99.90
26982;DHT22;14533;50.848;4.380;2022-11-30T03:07:32;8.00;99.90
26982;DHT22;14533;50.848;4.380;2022-11-30T03:10:00;7.90;99.90
26982;DHT22;14533;50.848;4.380;2022-11-30T03:12:27;8.00;99.90
26982;DHT22;14533;50.848;4.380;2022-11-30T03:15:03;8.20;99.90
26982;DHT22;14533;50.848;4.380;2022-11-30T03:17:29;8.20;99.90
26982;DHT22;14533;50.848;4.380;2022-11-30T03:19:58;8.30;99.90
26982;DHT22;14533;50.848;4.380;2022-11-30T03:22:25;8.20;99.90
26982;DHT22;14533;50.848;4.380;2022-11-30T03:24:51;8.10;99.90
26982;DHT22;14533;50.848;4.380;2022-11-30T03:27:18;7.90;99.90
26982;DHT22;14533;50.848;4.380;2022-11-30T03:29:44;7.80;99.90
26982;DHT22;14533;50.848;4.380;2022-11-30T03:32:11;7.80;99.90
26982;DHT22;14533;50.848;4.380;2022-11-30T03:34:39;7.70;99.90
26982;DHT22;14533;50.848;4.380;2022-11-30T03:37:06;7.50;99.90
26982;DHT22;14533;50.848;4.380;2022-11-30T03:39:33;7.40;99.90
26982;DHT22;14533;50.848;4.380;2022-11-30T03:42:00;7.30;99.90
26982;DHT22;14533;50.848;4.380;2022-11-30T03:44:26;7.20;99.90
26982;DHT22;14533;50.848;4.380;2022-11-30T03:46:54;7.20;99.90
26982;DHT22;14533;50.848;4.380;2022-11-30T03:49:26;7.20;99.90
26982;DHT22;14533;50.848;4.380;2022-11-30T03:51:54;7.20;99.90
26982;DHT22;14533;50.848;4.380;2022-11-30T03:54:20;7.30;99.90
26982;DHT22;14533;50.848;4.380;2022-11-30T03:56:51;7.20;99.90
26982;DHT22;14533;50.848;4.380;2022-11-30T03:59:17;7.40;99.90
26982;DHT22;14533;50.848;4.380;2022-11-30T04:01:46;7.30;99.90
26982;DHT22;14533;50.848;4.380;2022-11-30T04:04:14;7.30;99.90
26982;DHT22;14533;50.848;4.380;2022-11-30T04:06:42;7.50;99.90
26982;DHT22;14533;50.848;4.380;2022-11-30T04:09:14;7.60;99.90
26982;DHT22;14533;50.848;4.380;2022-11-30T04:11:52;7.60;99.90
26982;DHT22;14533;50.848;4.380;2022-11-30T04:14:24;7.40;99.90
26982;DHT22;14533;50.848;4.380;2022-11-30T04:16:50;7.40;99.90
26982;DHT22;14533;50.848;4.380;2022-11-30T04:19:17;7.40;99.90
26982;DHT22;14533;50.848;4.380;2022-11-30T04:21:45;7.30;99.90
26982;DHT22;14533;50.848;4.380;2022-11-30T04:24:15;7.50;99.90
26982;DHT22;14533;50.848;4.380;2022-11-30T04:26:48;7.50;99.90
26982;DHT22;14533;50.848;4.380;2022-11-30T04:29:22;7.60;99.90
26982;DHT22;14533;50.848;4.380;2022-11-30T04:31:51;7.50;99.90
26982;DHT22;14533;50.848;4.380;2022-11-30T04:34:21;7.60;99.90
26982;DHT22;14533;50.848;4.380;2022-11-30T04:36:47;7.60;99.90
26982;DHT22;14533;50.848;4.380;2022-11-30T04:39:16;7.50;99.90
26982;DHT22;14533;50.848;4.380;2022-11-30T04:41:57;7.30;99.90
26982;DHT22;14533;50.848;4.380;2022-11-30T04:44:22;7.40;99.90
26982;DHT22;14533;50.848;4.380;2022-11-30T04:46:50;7.20;99.90
26982;DHT22;14533;50.848;4.380;2022-11-30T04:49:29;7.30;99.90
26982;DHT22;14533;50.848;4.380;2022-11-30T04:51:55;7.40;99.90
26982;DHT22;14533;50.848;4.380;2022-11-30T04:54:21;7.40;99.90
26982;DHT22;14533;50.848;4.380;2022-11-30T04:56:47;7.20;99.90
26982;DHT22;14533;50.848;4.380;2022-11-30T04:59:19;7.10;99.90
26982;DHT22;14533;50.848;4.380;2022-11-30T05:01:50;7.20;99.90
26982;DHT22;14533;50.848;4.380;2022-11-30T05:04:28;7.30;99.90
26982;DHT22;14533;50.848;4.380;2022-11-30T05:06:54;7.50;99.90
26982;DHT22;14533;50.848;4.380;2022-11-30T05:09:20;7.80;99.90
26982;DHT22;14533;50.848;4.380;2022-11-30T05:11:45;7.80;99.90
26982;DHT22;14533;50.848;4.380;2022-11-30T05:14:15;7.70;99.90
26982;DHT22;14533;50.848;4.380;2022-11-30T05:16:40;7.60;99.90
26982;DHT22;14533;50.848;4.380;2022-11-30T05:19:06;7.60;99.90
26982;DHT22;14533;50.848;4.380;2022-11-30T05:21:33;7.50;99.90
26982;DHT22;14533;50.848;4.380;2022-11-30T05:24:00;7.50;99.90
26982;DHT22;14533;50.848;4.380;2022-11-30T05:26:30;7.30;99.90
26982;DHT22;14533;50.848;4.380;2022-11-30T05:28:57;7.40;99.90
26982;DHT22;14533;50.848;4.380;2022-11-30T05:31:23;7.40;99.90
26982;DHT22;14533;50.848;4.380;2022-11-30T05:33:53;7.20;99.90
26982;DHT22;14533;50.848;4.380;2022-11-30T05:36:22;7.00;99.90
26982;DHT22;14533;50.848;4.380;2022-11-30T05:38:48;6.80;99.90
26982;DHT22;14533;50.848;4.380;2022-11-30T05:41:14;6.80;99.90
26982;DHT22;14533;50.848;4.380;2022-11-30T05:43:47;6.90;99.90
26982;DHT22;14533;50.848;4.380;2022-11-30T05:46:16;7.00;99.90
26982;DHT22;14533;50.848;4.380;2022-11-30T05:48:42;7.10;99.90
26982;DHT22;14533;50.848;4.380;2022-11-30T05:51:12;6.80;99.90
26982;DHT22;14533;50.848;4.380;2022-11-30T05:54:00;6.70;99.90
26982;DHT22;14533;50.848;4.380;2022-11-30T05:56:26;6.80;99.90
26982;DHT22;14533;50.848;4.380;2022-11-30T05:58:53;6.90;99.90
26982;DHT22;14533;50.848;4.380;2022-11-30T06:01:24;6.80;99.90
26982;DHT22;14533;50.848;4.380;2022-11-30T06:03:53;6.80;99.90
26982;DHT22;14533;50.848;4.380;2022-11-30T06:06:21;6.90;99.90
26982;DHT22;14533;50.848;4.380;2022-11-30T06:08:50;7.00;99.90
26982;DHT22;14533;50.848;4.380;2022-11-30T06:11:17;7.40;99.90
26982;DHT22;14533;50.848;4.380;2022-11-30T06:13:43;7.20;99.90
26982;DHT22;14533;50.848;4.380;2022-11-30T06:16:16;6.90;99.90
26982;DHT22;14533;50.848;4.380;2022-11-30T06:18:48;6.90;99.90
26982;DHT22;14533;50.848;4.380;2022-11-30T06:21:15;6.90;99.90
26982;DHT22;14533;50.848;4.380;2022-11-30T06:23:44;6.90;99.90
26982;DHT22;14533;50.848;4.380;2022-11-30T06:26:10;7.00;99.90
26982;DHT22;14533;50.848;4.380;2022-11-30T06:28:37;6.90;99.90
26982;DHT22;14533;50.848;4.380;2022-11-30T06:31:06;6.70;99.90
26982;DHT22;14533;50.848;4.380;2022-11-30T06:33:40;6.60;99.90
26982;DHT22;14533;50.848;4.380;2022-11-30T06:36:10;6.60;99.90
26982;DHT22;14533;50.848;4.380;2022-11-30T06:38:37;6.70;99.90
26982;DHT22;14533;50.848;4.380;2022-11-30T06:41:07;6.50;99.90
26982;DHT22;14533;50.848;4.380;2022-11-30T06:43:35;6.40;99.90
26982;DHT22;14533;50.848;4.380;2022-11-30T06:46:07;6.30;99.90
26982;DHT22;14533;50.848;4.380;2022-11-30T06:48:39;6.30;99.90
26982;DHT22;14533;50.848;4.380;2022-11-30T06:51:08;6.50;99.90
26982;DHT22;14533;50.848;4.380;2022-11-30T06:53:36;6.80;99.90
26982;DHT22;14533;50.848;4.380;2022-11-30T06:56:07;7.10;99.90
26982;DHT22;14533;50.848;4.380;2022-11-30T06:58:33;7.00;99.90
26982;DHT22;14533;50.848;4.380;2022-11-30T07:01:07;7.20;99.90
26982;DHT22;14533;50.848;4.380;2022-11-30T07:03:34;7.40;99.90
26982;DHT22;14533;50.848;4.380;2022-11-30T07:05:59;7.30;99.90
26982;DHT22;14533;50.848;4.380;2022-11-30T07:08:37;7.30;99.90
26982;DHT22;14533;50.848;4.380;2022-11-30T07:11:05;7.20;99.90
26982;DHT22;14533;50.848;4.380;2022-11-30T07:13:34;7.30;99.90
26982;DHT22;14533;50.848;4.380;2022-11-30T07:16:14;7.30;99.90
26982;DHT22;14533;50.848;4.380;2022-11-30T07:18:40;7.40;99.90
26982;DHT22;14533;50.848;4.380;2022-11-30T07:21:14;7.50;99.90
26982;DHT22;14533;50.848;4.380;2022-11-30T07:23:46;7.50;99.90
26982;DHT22;14533;50.848;4.380;2022-11-30T07:26:33;7.60;99.90
26982;DHT22;14533;50.848;4.380;2022-11-30T07:29:14;8.00;99.90
26982;DHT22;14533;50.848;4.380;2022-11-30T07:31:41;8.00;99.90
26982;DHT22;14533;50.848;4.380;2022-11-30T07:34:09;7.80;99.90
26982;DHT22;14533;50.848;4.380;2022-11-30T07:36:37;7.50;99.90
26982;DHT22;14533;50.848;4.380;2022-11-30T07:39:05;7.30;99.90
26982;DHT22;14533;50.848;4.380;2022-11-30T07:41:31;7.00;99.90
26982;DHT22;14533;50.848;4.380;2022-11-30T07:44:06;7.00;99.90
26982;DHT22;14533;50.848;4.380;2022-11-30T07:46:36;7.00;99.90
26982;DHT22;14533;50.848;4.380;2022-11-30T07:49:07;7.20;99.90
26982;DHT22;14533;50.848;4.380;2022-11-30T07:51:48;7.30;99.90
26982;DHT22;14533;50.848;4.380;2022-11-30T07:54:16;7.70;99.90
26982;DHT22;14533;50.848;4.380;2022-11-30T07:56:46;7.70;99.90
26982;DHT22;14533;50.848;4.380;2022-11-30T07:59:14;7.90;99.90
26982;DHT22;14533;50.848;4.380;2022-11-30T08:01:45;7.90;99.90
26982;DHT22;14533;50.848;4.380;2022-11-30T08:04:11;7.90;99.90
26982;DHT22;14533;50.848;4.380;2022-11-30T08:06:40;8.00;99.90
26982;DHT22;14533;50.848;4.380;2022-11-30T08:09:05;7.90;99.90
26982;DHT22;14533;50.848;4.380;2022-11-30T08:11:34;8.00;99.90
26982;DHT22;14533;50.848;4.380;2022-11-30T08:14:02;7.40;99.90
26982;DHT22;14533;50.848;4.380;2022-11-30T08:16:33;7.20;99.90
26982;DHT22;14533;50.848;4.380;2022-11-30T08:18:59;7.10;99.90
26982;DHT22;14533;50.848;4.380;2022-11-30T08:21:25;7.10;99.90
26982;DHT22;14533;50.848;4.380;2022-11-30T08:24:10;7.30;99.90
26982;DHT22;14533;50.848;4.380;2022-11-30T08:26:40;7.50;99.90
26982;DHT22;14533;50.848;4.380;2022-11-30T08:29:08;7.50;99.90
26982;DHT22;14533;50.848;4.380;2022-11-30T08:31:38;7.40;99.90
26982;DHT22;14533;50.848;4.380;2022-11-30T08:34:07;7.60;99.90
26982;DHT22;14533;50.848;4.380;2022-11-30T08:36:36;7.60;99.90
26982;DHT22;14533;50.848;4.380;2022-11-30T08:39:22;7.90;99.90
26982;DHT22;14533;50.848;4.380;2022-11-30T08:41:49;7.80;99.90
26982;DHT22;14533;50.848;4.380;2022-11-30T08:44:41;7.60;99.90
26982;DHT22;14533;50.848;4.380;2022-11-30T08:47:25;7.60;99.90
26982;DHT22;14533;50.848;4.380;2022-11-30T08:49:54;7.60;99.90
26982;DHT22;14533;50.848;4.380;2022-11-30T08:52:26;7.60;99.90
26982;DHT22;14533;50.848;4.380;2022-11-30T08:55:01;7.40;99.90
26982;DHT22;14533;50.848;4.380;2022-11-30T08:57:28;7.40;99.90
26982;DHT22;14533;50.848;4.380;2022-11-30T08:59:53;7.40;99.90
26982;DHT22;14533;50.848;4.380;2022-11-30T09:02:20;7.40;99.90
26982;DHT22;14533;50.848;4.380;2022-11-30T09:04:48;7.50;99.90
26982;DHT22;14533;50.848;4.380;2022-11-30T09:07:15;7.80;99.90
26982;DHT22;14533;50.848;4.380;2022-11-30T09:09:41;7.90;99.90
26982;DHT22;14533;50.848;4.380;2022-11-30T09:12:08;7.60;99.90
26982;DHT22;14533;50.848;4.380;2022-11-30T09:14:34;7.60;99.90
26982;DHT22;14533;50.848;4.380;2022-11-30T09:17:06;7.40;99.90
26982;DHT22;14533;50.848;4.380;2022-11-30T09:19:32;7.60;99.90
26982;DHT22;14533;50.848;4.380;2022-11-30T09:22:01;8.10;99.90
26982;DHT22;14533;50.848;4.380;2022-11-30T09:24:26;8.30;99.90
26982;DHT22;14533;50.848;4.380;2022-11-30T09:26:54;8.50;99.90
26982;DHT22;14533;50.848;4.380;2022-11-30T09:29:21;8.10;99.90
26982;DHT22;14533;50.848;4.380;2022-11-30T09:31:48;8.10;99.90
26982;DHT22;14533;50.848;4.380;2022-11-30T09:34:13;8.00;99.90
26982;DHT22;14533;50.848;4.380;2022-11-30T09:36:40;7.90;99.90
26982;DHT22;14533;50.848;4.380;2022-11-30T09:39:09;7.90;99.90
26982;DHT22;14533;50.848;4.380;2022-11-30T09:52:39;8.10;99.90
26982;DHT22;14533;50.848;4.380;2022-11-30T09:55:12;8.00;99.90
26982;DHT22;14533;50.848;4.380;2022-11-30T10:00:17;8.10;99.90
26982;DHT22;14533;50.848;4.380;2022-11-30T10:02:44;8.10;99.90
26982;DHT22;14533;50.848;4.380;2022-11-30T10:05:18;8.10;99.90
26982;DHT22;14533;50.848;4.380;2022-11-30T10:10:40;8.20;99.90
26982;DHT22;14533;50.848;4.380;2022-11-30T10:16:21;8.40;99.90
26982;DHT22;14533;50.848;4.380;2022-11-30T10:27:15;8.50;99.90
26982;DHT22;14533;50.848;4.380;2022-11-30T10:29:41;8.60;99.90
26982;DHT22;14533;50.848;4.380;2022-11-30T10:32:18;8.50;99.90
26982;DHT22;14533;50.848;4.380;2022-11-30T10:34:47;8.40;99.90
26982;DHT22;14533;50.848;4.380;2022-11-30T10:37:17;8.30;99.90
26982;DHT22;14533;50.848;4.380;2022-11-30T10:39:58;8.30;99.90
26982;DHT22;14533;50.848;4.380;2022-11-30T10:42:41;8.40;99.90
26982;DHT22;14533;50.848;4.380;2022-11-30T10:45:12;8.70;99.90
26982;DHT22;14533;50.848;4.380;2022-11-30T10:48:05;9.10;99.90
26982;DHT22;14533;50.848;4.380;2022-11-30T10:50:38;9.60;99.90
26982;DHT22;14533;50.848;4.380;2022-11-30T10:53:08;9.80;99.90
26982;DHT22;14533;50.848;4.380;2022-11-30T10:56:02;9.80;99.90
26982;DHT22;14533;50.848;4.380;2022-11-30T11:01:10;9.60;99.90
26982;DHT22;14533;50.848;4.380;2022-11-30T11:04:07;9.50;99.90
26982;DHT22;14533;50.848;4.380;2022-11-30T11:06:33;9.40;99.90
26982;DHT22;14533;50.848;4.380;2022-11-30T11:11:59;9.80;99.90
26982;DHT22;14533;50.848;4.380;2022-11-30T11:14:26;9.80;99.90
26982;DHT22;14533;50.848;4.380;2022-11-30T11:17:27;9.60;99.90
26982;DHT22;14533;50.848;4.380;2022-11-30T11:19:53;9.50;99.90
26982;DHT22;14533;50.848;4.380;2022-11-30T11:22:25;9.50;99.90
26982;DHT22;14533;50.848;4.380;2022-11-30T11:25:21;9.50;99.90
26982;DHT22;14533;50.848;4.380;2022-11-30T11:27:52;9.40;99.90
26982;DHT22;14533;50.848;4.380;2022-11-30T11:30:28;9.40;99.90
26982;DHT22;14533;50.848;4.380;2022-11-30T11:36:11;9.30;99.90
26982;DHT22;14533;50.848;4.380;2022-11-30T11:38:47;9.30;99.90
26982;DHT22;14533;50.848;4.380;2022-11-30T11:41:32;9.10;99.90
26982;DHT22;14533;50.848;4.380;2022-11-30T11:44:18;9.10;99.90
26982;DHT22;14533;50.848;4.380;2022-11-30T11:46:56;9.10;99.90
26982;DHT22;14533;50.848;4.380;2022-11-30T11:49:30;9.30;99.90
26982;DHT22;14533;50.848;4.380;2022-11-30T11:55:31;9.40;99.90
26982;DHT22;14533;50.848;4.380;2022-11-30T11:57:40;9.70;99.90
26982;DHT22;14533;50.848;4.380;2022-11-30T12:00:20;9.70;99.90
26982;DHT22;14533;50.848;4.380;2022-11-30T12:05:43;9.50;99.90
26982;DHT22;14533;50.848;4.380;2022-11-30T12:13:38;9.50;99.90
26982;DHT22;14533;50.848;4.380;2022-11-30T12:16:57;9.50;99.90
26982;DHT22;14533;50.848;4.380;2022-11-30T12:19:26;9.40;99.90
26982;DHT22;14533;50.848;4.380;2022-11-30T12:33:32;10.20;99.90
26982;DHT22;14533;50.848;4.380;2022-11-30T12:36:32;10.30;99.90
26982;DHT22;14533;50.848;4.380;2022-11-30T12:41:58;10.30;99.90
26982;DHT22;14533;50.848;4.380;2022-11-30T12:47:25;10.10;99.90
26982;DHT22;14533;50.848;4.380;2022-11-30T12:53:05;9.80;99.90
26982;DHT22;14533;50.848;4.380;2022-11-30T12:56:29;9.80;99.90
26982;DHT22;14533;50.848;4.380;2022-11-30T13:01:31;10.10;99.90
26982;DHT22;14533;50.848;4.380;2022-11-30T13:07:00;10.40;99.90
26982;DHT22;14533;50.848;4.380;2022-11-30T13:09:37;10.50;99.90
26982;DHT22;14533;50.848;4.380;2022-11-30T13:12:36;10.60;99.90
26982;DHT22;14533;50.848;4.380;2022-11-30T13:15:12;10.40;99.90
26982;DHT22;14533;50.848;4.380;2022-11-30T13:17:41;10.00;99.90
26982;DHT22;14533;50.848;4.380;2022-11-30T13:20:15;9.80;99.90
26982;DHT22;14533;50.848;4.380;2022-11-30T13:22:55;9.90;99.90
26982;DHT22;14533;50.848;4.380;2022-11-30T13:25:28;9.90;99.90
26982;DHT22;14533;50.848;4.380;2022-11-30T13:28:09;9.90;99.90
26982;DHT22;14533;50.848;4.380;2022-11-30T13:36:34;10.00;99.90
26982;DHT22;14533;50.848;4.380;2022-11-30T13:39:25;10.00;99.90
26982;DHT22;14533;50.848;4.380;2022-11-30T13:44:39;9.90;99.90
26982;DHT22;14533;50.848;4.380;2022-11-30T13:49:44;10.00;99.90
26982;DHT22;14533;50.848;4.380;2022-11-30T13:52:14;10.00;99.90
26982;DHT22;14533;50.848;4.380;2022-11-30T13:54:49;9.90;99.90
26982;DHT22;14533;50.848;4.380;2022-11-30T13:57:19;9.90;99.90
26982;DHT22;14533;50.848;4.380;2022-11-30T14:05:52;9.90;99.90
26982;DHT22;14533;50.848;4.380;2022-11-30T14:10:49;9.80;99.90
26982;DHT22;14533;50.848;4.380;2022-11-30T14:16:33;9.70;99.90
26982;DHT22;14533;50.848;4.380;2022-11-30T14:18:43;9.90;99.90
26982;DHT22;14533;50.848;4.380;2022-11-30T14:21:32;9.80;99.90
26982;DHT22;14533;50.848;4.380;2022-11-30T14:24:04;9.80;99.90
26982;DHT22;14533;50.848;4.380;2022-11-30T14:26:44;9.90;99.90
26982;DHT22;14533;50.848;4.380;2022-11-30T14:29:24;9.80;99.90
26982;DHT22;14533;50.848;4.380;2022-11-30T14:31:56;9.70;99.90
26982;DHT22;14533;50.848;4.380;2022-11-30T14:34:29;9.70;99.90
26982;DHT22;14533;50.848;4.380;2022-11-30T14:37:02;9.80;99.90
26982;DHT22;14533;50.848;4.380;2022-11-30T14:39:41;9.90;99.90
26982;DHT22;14533;50.848;4.380;2022-11-30T14:42:25;10.00;99.90
26982;DHT22;14533;50.848;4.380;2022-11-30T14:44:51;9.80;99.90
26982;DHT22;14533;50.848;4.380;2022-11-30T14:47:31;9.70;99.90
26982;DHT22;14533;50.848;4.380;2022-11-30T14:49:59;9.60;99.90
26982;DHT22;14533;50.848;4.380;2022-11-30T15:00:37;9.50;99.90
26982;DHT22;14533;50.848;4.380;2022-11-30T15:03:04;9.40;99.90
26982;DHT22;14533;50.848;4.380;2022-11-30T15:05:31;9.30;99.90
26982;DHT22;14533;50.848;4.380;2022-11-30T15:07:56;9.40;99.90
26982;DHT22;14533;50.848;4.380;2022-11-30T15:10:30;9.30;99.90
26982;DHT22;14533;50.848;4.380;2022-11-30T15:12:59;9.30;99.90
26982;DHT22;14533;50.848;4.380;2022-11-30T15:15:27;9.40;99.90
26982;DHT22;14533;50.848;4.380;2022-11-30T15:18:09;9.30;99.90
26982;DHT22;14533;50.848;4.380;2022-11-30T15:20:56;9.20;99.90
26982;DHT22;14533;50.848;4.380;2022-11-30T15:23:26;9.10;99.90
26982;DHT22;14533;50.848;4.380;2022-11-30T15:26:00;9.10;99.90
26982;DHT22;14533;50.848;4.380;2022-11-30T15:28:36;9.20;99.90
26982;DHT22;14533;50.848;4.380;2022-11-30T15:31:06;9.20;99.90
26982;DHT22;14533;50.848;4.380;2022-11-30T15:33:40;9.00;99.90
26982;DHT22;14533;50.848;4.380;2022-11-30T15:36:06;9.00;99.90
26982;DHT22;14533;50.848;4.380;2022-11-30T15:38:32;9.20;99.90
26982;DHT22;14533;50.848;4.380;2022-11-30T15:41:15;9.40;99.90
26982;DHT22;14533;50.848;4.380;2022-11-30T15:43:42;9.20;99.90
26982;DHT22;14533;50.848;4.380;2022-11-30T15:46:33;9.00;99.90
26982;DHT22;14533;50.848;4.380;2022-11-30T15:49:29;8.90;99.90
26982;DHT22;14533;50.848;4.380;2022-11-30T15:52:12;9.00;99.90
26982;DHT22;14533;50.848;4.380;2022-11-30T15:57:08;8.80;99.90
26982;DHT22;14533;50.848;4.380;2022-11-30T15:59:34;8.80;99.90
26982;DHT22;14533;50.848;4.380;2022-11-30T16:02:01;8.90;99.90
26982;DHT22;14533;50.848;4.380;2022-11-30T16:07:29;8.90;99.90
26982;DHT22;14533;50.848;4.380;2022-11-30T16:10:14;8.90;99.90
26982;DHT22;14533;50.848;4.380;2022-11-30T16:12:42;8.80;99.90
26982;DHT22;14533;50.848;4.380;2022-11-30T16:15:25;8.90;99.90
26982;DHT22;14533;50.848;4.380;2022-11-30T16:17:54;8.90;99.90
26982;DHT22;14533;50.848;4.380;2022-11-30T16:20:21;8.80;99.90
26982;DHT22;14533;50.848;4.380;2022-11-30T16:22:47;8.90;99.90
26982;DHT22;14533;50.848;4.380;2022-11-30T16:25:16;8.80;99.90
26982;DHT22;14533;50.848;4.380;2022-11-30T16:27:42;8.80;99.90
26982;DHT22;14533;50.848;4.380;2022-11-30T16:30:18;8.70;99.90
26982;DHT22;14533;50.848;4.380;2022-11-30T16:32:44;8.80;99.90
26982;DHT22;14533;50.848;4.380;2022-11-30T16:35:22;8.70;99.90
26982;DHT22;14533;50.848;4.380;2022-11-30T16:37:49;8.70;99.90
26982;DHT22;14533;50.848;4.380;2022-11-30T16:40:15;8.80;99.90
26982;DHT22;14533;50.848;4.380;2022-11-30T16:42:41;9.10;99.90
26982;DHT22;14533;50.848;4.380;2022-11-30T16:45:22;9.40;99.90
26982;DHT22;14533;50.848;4.380;2022-11-30T16:47:49;9.50;99.90
26982;DHT22;14533;50.848;4.380;2022-11-30T16:50:17;9.50;99.90
26982;DHT22;14533;50.848;4.380;2022-11-30T16:52:43;9.20;99.90
26982;DHT22;14533;50.848;4.380;2022-11-30T16:55:20;8.90;99.90
26982;DHT22;14533;50.848;4.380;2022-11-30T16:57:47;8.90;99.90
26982;DHT22;14533;50.848;4.380;2022-11-30T17:00:17;8.70;99.90
26982;DHT22;14533;50.848;4.380;2022-11-30T17:03:01;8.60;99.90
26982;DHT22;14533;50.848;4.380;2022-11-30T17:05:33;8.80;99.90
26982;DHT22;14533;50.848;4.380;2022-11-30T17:07:59;8.70;99.90
26982;DHT22;14533;50.848;4.380;2022-11-30T17:10:25;8.80;99.90
26982;DHT22;14533;50.848;4.380;2022-11-30T17:12:51;8.70;99.90
26982;DHT22;14533;50.848;4.380;2022-11-30T17:15:21;8.60;99.90
26982;DHT22;14533;50.848;4.380;2022-11-30T17:17:48;8.40;99.90
26982;DHT22;14533;50.848;4.380;2022-11-30T17:20:15;8.40;99.90
26982;DHT22;14533;50.848;4.380;2022-11-30T17:22:41;8.50;99.90
26982;DHT22;14533;50.848;4.380;2022-11-30T17:25:14;8.50;99.90
26982;DHT22;14533;50.848;4.380;2022-11-30T17:27:41;8.60;99.90
26982;DHT22;14533;50.848;4.380;2022-11-30T17:30:07;8.60;99.90
26982;DHT22;14533;50.848;4.380;2022-11-30T17:32:34;8.60;99.90
26982;DHT22;14533;50.848;4.380;2022-11-30T17:35:00;8.60;99.90
26982;DHT22;14533;50.848;4.380;2022-11-30T17:37:25;8.60;99.90
26982;DHT22;14533;50.848;4.380;2022-11-30T17:39:51;8.70;99.90
26982;DHT22;14533;50.848;4.380;2022-11-30T17:42:17;8.90;99.90
26982;DHT22;14533;50.848;4.380;2022-11-30T17:44:42;9.10;99.90
26982;DHT22;14533;50.848;4.380;2022-11-30T17:47:12;9.10;99.90
26982;DHT22;14533;50.848;4.380;2022-11-30T17:49:38;9.00;99.90
26982;DHT22;14533;50.848;4.380;2022-11-30T17:52:04;8.80;99.90
26982;DHT22;14533;50.848;4.380;2022-11-30T17:54:30;8.70;99.90
26982;DHT22;14533;50.848;4.380;2022-11-30T17:56:57;8.70;99.90
26982;DHT22;14533;50.848;4.380;2022-11-30T17:59:23;8.70;99.90
26982;DHT22;14533;50.848;4.380;2022-11-30T18:01:49;8.70;99.90
26982;DHT22;14533;50.848;4.380;2022-11-30T18:04:15;8.70;99.90
26982;DHT22;14533;50.848;4.380;2022-11-30T18:06:41;8.70;99.90
26982;DHT22;14533;50.848;4.380;2022-11-30T18:09:07;8.90;99.90
26982;DHT22;14533;50.848;4.380;2022-11-30T18:11:32;9.30;99.90
26982;DHT22;14533;50.848;4.380;2022-11-30T18:14:00;9.10;99.90